createdAt,value
2017-12-03T00:01:18.892Z,26.00
2017-12-03T00:03:46.678Z,38.07
2017-12-03T00:06:14.138Z,28.27
2017-12-03T00:08:41.593Z,37.03
2017-12-03T00:11:09.288Z,31.40
2017-12-03T00:13:36.736Z,39.20
2017-12-03T00:16:04.193Z,30.33
2017-12-03T00:18:32.064Z,26.30
2017-12-03T00:20:59.510Z,42.23
2017-12-03T00:23:26.989Z,27.10
2017-12-03T00:25:54.747Z,31.30
2017-12-03T00:28:22.200Z,34.70
2017-12-03T00:30:49.646Z,33.90
2017-12-03T00:33:17.433Z,32.70
2017-12-03T00:35:44.892Z,40.30
2017-12-03T00:38:12.780Z,38.10
2017-12-03T00:40:40.736Z,51.90
2017-12-03T00:43:08.183Z,37.23
2017-12-03T00:45:35.632Z,29.30
2017-12-03T00:48:03.391Z,37.17
2017-12-03T00:50:30.848Z,38.50
2017-12-03T00:52:58.297Z,30.17
2017-12-03T00:55:26.096Z,37.60
2017-12-03T00:57:53.552Z,32.53
2017-12-03T01:00:21.000Z,31.63
2017-12-03T01:02:48.808Z,31.63
2017-12-03T01:05:16.274Z,46.90
2017-12-03T01:07:43.736Z,31.97
2017-12-03T01:10:11.477Z,30.50
2017-12-03T01:12:38.925Z,33.73
2017-12-03T01:15:06.382Z,28.73
2017-12-03T01:17:34.037Z,38.17
2017-12-03T01:20:01.488Z,45.50
2017-12-03T01:22:28.939Z,54.80
2017-12-03T01:24:56.798Z,52.70
2017-12-03T01:27:24.258Z,31.97
2017-12-03T01:29:51.718Z,38.50
2017-12-03T01:32:19.538Z,30.07
2017-12-03T01:34:46.990Z,40.13
2017-12-03T01:37:14.438Z,29.80
2017-12-03T01:39:42.845Z,50.37
2017-12-03T01:42:10.297Z,37.30
2017-12-03T01:44:37.746Z,34.83
2017-12-03T01:47:05.521Z,34.70
2017-12-03T01:49:32.969Z,35.23
2017-12-03T01:52:00.422Z,37.40
2017-12-03T01:54:28.205Z,54.73
2017-12-03T01:56:55.649Z,33.97
2017-12-03T01:59:23.103Z,30.10
2017-12-03T02:01:50.903Z,38.57
2017-12-03T02:04:18.359Z,32.30
2017-12-03T02:06:45.809Z,30.93
2017-12-03T02:09:13.583Z,31.30
2017-12-03T02:11:41.030Z,36.47
2017-12-03T02:14:08.482Z,34.53
2017-12-03T02:16:36.145Z,27.63
2017-12-03T02:19:03.597Z,30.93
2017-12-03T02:21:31.048Z,26.70
2017-12-03T02:23:58.956Z,30.77
2017-12-03T02:26:26.402Z,30.60
2017-12-03T02:28:53.853Z,35.50
2017-12-03T02:31:21.641Z,37.97
2017-12-03T02:33:49.089Z,32.70
2017-12-03T02:36:16.542Z,33.97
2017-12-03T02:38:44.336Z,32.87
2017-12-03T02:41:12.489Z,36.27
2017-12-03T02:43:39.935Z,33.67
2017-12-03T02:46:07.645Z,38.60
2017-12-03T02:48:35.094Z,38.13
2017-12-03T02:51:02.542Z,36.90
2017-12-03T02:53:30.316Z,36.30
2017-12-03T02:55:57.769Z,47.83
2017-12-03T02:58:25.217Z,35.73
2017-12-03T03:00:53.019Z,33.63
2017-12-03T03:03:20.474Z,42.63
2017-12-03T03:05:47.926Z,34.43
2017-12-03T03:08:15.694Z,36.70
2017-12-03T03:10:43.145Z,29.20
2017-12-03T03:13:10.592Z,35.27
2017-12-03T03:15:38.305Z,37.00
2017-12-03T03:18:05.765Z,37.23
2017-12-03T03:20:33.277Z,43.23
2017-12-03T03:23:01.074Z,38.13
2017-12-03T03:25:28.525Z,34.70
2017-12-03T03:27:55.999Z,43.47
2017-12-03T03:30:23.763Z,42.40
2017-12-03T03:32:51.223Z,44.43
2017-12-03T03:35:18.680Z,31.60
2017-12-03T03:37:46.458Z,36.57
2017-12-03T03:40:13.908Z,30.30
2017-12-03T03:42:41.749Z,36.03
2017-12-03T03:45:09.710Z,43.53
2017-12-03T03:47:37.166Z,35.30
2017-12-03T03:50:04.617Z,33.53
2017-12-03T03:52:32.424Z,43.00
2017-12-03T03:54:59.872Z,41.03
2017-12-03T03:57:27.336Z,41.97
2017-12-03T03:59:55.421Z,30.03
2017-12-03T04:02:22.887Z,36.27
2017-12-03T04:04:50.354Z,32.03
2017-12-03T04:07:18.097Z,35.27
2017-12-03T04:09:45.554Z,40.43
2017-12-03T04:12:13.005Z,34.97
2017-12-03T04:14:40.797Z,33.80
2017-12-03T04:17:08.245Z,31.67
2017-12-03T04:19:35.694Z,27.37
2017-12-03T04:22:03.277Z,44.87
2017-12-03T04:24:30.736Z,41.73
2017-12-03T04:26:58.196Z,34.60
2017-12-03T04:29:25.921Z,37.70
2017-12-03T04:31:53.386Z,33.03
2017-12-03T04:34:20.861Z,31.40
2017-12-03T04:36:48.632Z,36.93
2017-12-03T04:39:16.088Z,33.40
2017-12-03T04:41:43.539Z,32.37
2017-12-03T04:44:11.627Z,35.97
2017-12-03T04:46:39.092Z,39.13
2017-12-03T04:49:06.546Z,34.37
2017-12-03T04:51:34.245Z,39.83
2017-12-03T04:54:01.697Z,42.63
2017-12-03T04:56:29.165Z,32.97
2017-12-03T04:58:56.919Z,35.47
2017-12-03T05:01:24.373Z,40.10
2017-12-03T05:03:51.825Z,34.73
2017-12-03T05:06:19.604Z,41.17
2017-12-03T05:08:47.057Z,36.50
2017-12-03T05:11:14.506Z,33.33
2017-12-03T05:13:42.292Z,44.63
2017-12-03T05:16:09.736Z,40.17
2017-12-03T05:18:37.194Z,34.97
2017-12-03T05:21:04.984Z,33.00
2017-12-03T05:23:32.446Z,38.83
2017-12-03T05:25:59.893Z,42.63
2017-12-03T05:28:27.676Z,32.27
2017-12-03T05:30:55.195Z,51.60
2017-12-03T05:33:22.642Z,38.13
2017-12-03T05:35:50.354Z,58.20
2017-12-03T05:38:17.806Z,39.30
2017-12-03T05:40:45.264Z,33.87
2017-12-03T05:43:12.985Z,42.80
2017-12-03T05:45:40.757Z,36.87
2017-12-03T05:48:08.317Z,36.13
2017-12-03T05:50:36.037Z,35.10
2017-12-03T05:53:03.489Z,60.33
2017-12-03T05:55:30.942Z,33.97
2017-12-03T05:57:58.625Z,44.87
2017-12-03T06:00:26.085Z,45.33
2017-12-03T06:02:53.544Z,41.10
2017-12-03T06:05:21.412Z,37.10
2017-12-03T06:07:48.865Z,48.13
2017-12-03T06:10:16.316Z,41.47
2017-12-03T06:12:44.102Z,41.27
2017-12-03T06:15:11.553Z,43.53
2017-12-03T06:17:39.009Z,35.87
2017-12-03T06:20:07.084Z,40.30
2017-12-03T06:22:34.541Z,44.03
2017-12-03T06:25:01.993Z,38.90
2017-12-03T06:27:29.744Z,28.67
2017-12-03T06:29:57.200Z,42.33
2017-12-03T06:32:24.657Z,35.47
2017-12-03T06:34:52.471Z,39.33
2017-12-03T06:37:19.928Z,40.70
2017-12-03T06:39:47.393Z,34.00
2017-12-03T06:42:15.144Z,40.60
2017-12-03T06:44:42.604Z,28.60
2017-12-03T06:47:10.750Z,44.37
2017-12-03T06:49:38.482Z,40.50
2017-12-03T06:52:05.928Z,60.77
2017-12-03T06:54:33.404Z,34.10
2017-12-03T06:57:01.147Z,44.57
2017-12-03T06:59:28.608Z,39.27
2017-12-03T07:01:56.068Z,44.30
2017-12-03T07:04:23.817Z,36.27
2017-12-03T07:06:51.286Z,34.93
2017-12-03T07:09:18.761Z,40.40
2017-12-03T07:11:46.818Z,47.03
2017-12-03T07:14:14.279Z,33.13
2017-12-03T07:16:41.736Z,51.03
2017-12-03T07:19:09.515Z,57.63
2017-12-03T07:21:36.977Z,44.53
2017-12-03T07:24:04.443Z,34.23
2017-12-03T07:26:32.201Z,35.83
2017-12-03T07:28:59.648Z,42.87
2017-12-03T07:31:27.102Z,35.97
2017-12-03T07:33:54.686Z,41.87
2017-12-03T07:36:22.184Z,34.53
2017-12-03T07:38:49.644Z,41.37
2017-12-03T07:41:17.391Z,45.40
2017-12-03T07:43:44.857Z,32.83
2017-12-03T07:46:12.311Z,43.20
2017-12-03T07:48:40.608Z,44.43
2017-12-03T07:51:08.095Z,35.37
2017-12-03T07:53:35.564Z,46.27
2017-12-03T07:56:03.264Z,41.13
2017-12-03T07:58:30.721Z,47.20
2017-12-03T08:00:58.558Z,36.23
2017-12-03T08:03:26.250Z,44.73
2017-12-03T08:05:53.701Z,46.67
2017-12-03T08:08:21.149Z,41.93
2017-12-03T08:10:48.933Z,38.60
2017-12-03T08:13:16.411Z,38.63
2017-12-03T08:15:43.869Z,34.57
2017-12-03T08:18:11.622Z,33.87
2017-12-03T08:20:39.086Z,34.80
2017-12-03T08:23:06.546Z,35.33
2017-12-03T08:25:34.296Z,32.87
2017-12-03T08:28:01.754Z,30.40
2017-12-03T08:30:29.211Z,39.90
2017-12-03T08:32:57.148Z,64.63
2017-12-03T08:35:24.600Z,41.67
2017-12-03T08:37:52.064Z,36.97
2017-12-03T08:40:19.830Z,52.53
2017-12-03T08:42:47.287Z,41.23
2017-12-03T08:45:14.750Z,36.73
2017-12-03T08:47:42.379Z,30.60
2017-12-03T08:50:10.204Z,29.13
2017-12-03T08:52:37.655Z,31.13
2017-12-03T08:55:05.414Z,30.70
2017-12-03T08:57:32.866Z,31.77
2017-12-03T09:00:00.333Z,38.87
2017-12-03T09:02:28.044Z,53.03
2017-12-03T09:04:55.578Z,28.47
2017-12-03T09:07:23.029Z,30.60
2017-12-03T09:09:50.758Z,33.80
2017-12-03T09:12:18.205Z,35.53
2017-12-03T09:14:45.662Z,38.13
2017-12-03T09:17:13.417Z,29.20
2017-12-03T09:19:40.867Z,41.77
2017-12-03T09:22:08.322Z,25.63
2017-12-03T09:24:36.166Z,39.87
2017-12-03T09:27:03.613Z,30.53
2017-12-03T09:29:31.072Z,34.33
2017-12-03T09:31:58.789Z,33.60
2017-12-03T09:34:26.242Z,48.27
2017-12-03T09:36:53.747Z,29.50
2017-12-03T09:39:21.458Z,24.20
2017-12-03T09:41:48.929Z,27.70
2017-12-03T09:44:16.387Z,33.70
2017-12-03T09:46:44.178Z,28.10
2017-12-03T09:49:11.633Z,23.23
2017-12-03T09:51:39.780Z,18.33
2017-12-03T09:54:07.470Z,19.07
2017-12-03T09:56:34.926Z,24.63
2017-12-03T09:59:02.378Z,22.07
2017-12-03T10:01:30.165Z,17.57
2017-12-03T10:03:57.617Z,25.97
2017-12-03T10:06:25.153Z,17.87
2017-12-03T10:08:53.157Z,11.37
2017-12-03T10:11:21.226Z,19.20
2017-12-03T10:13:48.685Z,17.37
2017-12-03T10:16:16.458Z,23.73
2017-12-03T10:18:43.921Z,25.00
2017-12-03T10:21:11.380Z,22.30
2017-12-03T10:23:39.146Z,22.60
2017-12-03T10:26:06.614Z,16.43
2017-12-03T10:28:34.065Z,20.50
2017-12-03T10:31:01.812Z,12.50
2017-12-03T10:33:29.300Z,14.20
2017-12-03T10:35:56.755Z,17.50
2017-12-03T10:38:24.820Z,23.93
2017-12-03T10:40:52.276Z,22.30
2017-12-03T10:43:19.747Z,16.53
2017-12-03T10:45:47.507Z,18.83
2017-12-03T10:48:14.972Z,26.20
2017-12-03T10:50:42.430Z,25.03
2017-12-03T10:53:10.505Z,20.70
2017-12-03T10:55:37.964Z,18.40
2017-12-03T10:58:05.422Z,14.10
2017-12-03T11:00:33.194Z,15.60
2017-12-03T11:03:00.654Z,20.00
2017-12-03T11:05:28.113Z,12.87
2017-12-03T11:07:55.876Z,18.73
2017-12-03T11:10:23.324Z,13.37
2017-12-03T11:12:50.777Z,12.87
2017-12-03T11:15:18.565Z,20.10
2017-12-03T11:17:46.026Z,18.57
2017-12-03T11:20:13.487Z,11.00
2017-12-03T11:22:41.224Z,14.30
2017-12-03T11:25:08.680Z,13.50
2017-12-03T11:27:36.130Z,17.33
2017-12-03T11:30:03.855Z,13.10
2017-12-03T11:32:31.339Z,17.50
2017-12-03T11:34:58.793Z,14.20
2017-12-03T11:37:26.423Z,16.27
2017-12-03T11:39:53.906Z,14.93
2017-12-03T11:42:21.366Z,14.27
2017-12-03T11:44:49.617Z,12.30
2017-12-03T11:47:17.066Z,17.00
2017-12-03T11:49:44.524Z,23.10
2017-12-03T11:52:12.303Z,12.80
2017-12-03T11:54:40.440Z,11.70
2017-12-03T11:57:07.885Z,15.53
2017-12-03T11:59:35.900Z,21.33
2017-12-03T12:02:03.356Z,15.17
2017-12-03T12:04:30.803Z,15.13
2017-12-03T12:06:58.371Z,15.93
2017-12-03T12:09:25.828Z,16.30
2017-12-03T12:11:53.271Z,13.30
2017-12-03T12:14:20.850Z,16.40
2017-12-03T12:16:48.306Z,14.80
2017-12-03T12:19:15.746Z,14.40
2017-12-03T12:21:43.666Z,19.53
2017-12-03T12:24:11.116Z,28.83
2017-12-03T12:26:38.562Z,17.20
2017-12-03T12:29:06.232Z,11.17
2017-12-03T12:31:33.681Z,38.20
2017-12-03T12:34:01.147Z,22.23
2017-12-03T12:36:29.029Z,17.17
2017-12-03T12:38:56.485Z,22.33
2017-12-03T12:41:23.941Z,29.43
2017-12-03T12:43:51.609Z,25.10
2017-12-03T12:46:19.066Z,14.27
2017-12-03T12:48:46.517Z,13.53
2017-12-03T12:51:14.413Z,12.50
2017-12-03T12:53:41.873Z,15.43
2017-12-03T12:56:10.022Z,19.63
2017-12-03T12:58:37.778Z,16.93
2017-12-03T13:01:05.234Z,19.23
2017-12-03T13:03:32.687Z,17.33
2017-12-03T13:06:00.401Z,12.07
2017-12-03T13:08:27.849Z,11.67
2017-12-03T13:10:55.293Z,13.60
2017-12-03T13:13:23.085Z,17.40
2017-12-03T13:15:50.532Z,14.87
2017-12-03T13:18:17.977Z,13.70
2017-12-03T13:20:45.783Z,53.23
2017-12-03T13:23:13.246Z,14.27
2017-12-03T13:25:40.697Z,16.60
2017-12-03T13:28:08.465Z,19.63
2017-12-03T13:30:35.927Z,23.63
2017-12-03T13:33:03.396Z,28.40
2017-12-03T13:35:31.145Z,21.03
2017-12-03T13:37:58.599Z,14.03
2017-12-03T13:40:26.048Z,20.97
2017-12-03T13:42:53.825Z,13.37
2017-12-03T13:45:21.277Z,17.20
2017-12-03T13:47:48.729Z,15.00
2017-12-03T13:50:17.136Z,16.73
2017-12-03T13:52:44.594Z,27.03
2017-12-03T13:55:12.057Z,18.70
2017-12-03T13:57:40.132Z,16.43
2017-12-03T14:00:07.593Z,17.03
2017-12-03T14:02:35.042Z,12.03
2017-12-03T14:05:02.820Z,17.73
2017-12-03T14:07:30.277Z,18.23
2017-12-03T14:09:57.730Z,15.13
2017-12-03T14:12:25.507Z,13.03
2017-12-03T14:14:52.966Z,13.53
2017-12-03T14:17:20.428Z,13.20
2017-12-03T14:19:48.495Z,7.37
2017-12-03T14:22:16.037Z,10.50
2017-12-03T14:24:43.482Z,9.17
2017-12-03T14:27:11.087Z,17.33
2017-12-03T14:29:38.538Z,21.07
2017-12-03T14:32:05.987Z,12.50
2017-12-03T14:34:33.866Z,15.63
2017-12-03T14:37:01.344Z,12.50
2017-12-03T14:39:28.802Z,15.83
2017-12-03T14:41:56.553Z,17.60
2017-12-03T14:44:24.003Z,13.93
2017-12-03T14:46:51.472Z,16.40
2017-12-03T14:49:19.526Z,18.10
2017-12-03T14:51:46.988Z,18.13
2017-12-03T14:54:14.437Z,14.53
2017-12-03T14:56:42.237Z,14.53
2017-12-03T14:59:10.081Z,18.93
2017-12-03T15:01:37.545Z,20.83
2017-12-03T15:04:05.541Z,14.43
2017-12-03T15:06:32.993Z,14.33
2017-12-03T15:09:00.445Z,21.30
2017-12-03T15:11:28.226Z,13.50
2017-12-03T15:13:55.678Z,18.60
2017-12-03T15:16:23.124Z,21.50
2017-12-03T15:18:50.918Z,17.27
2017-12-03T15:21:18.367Z,6.73
2017-12-03T15:23:45.806Z,8.27
2017-12-03T15:26:13.489Z,14.37
2017-12-03T15:28:40.937Z,13.53
2017-12-03T15:31:08.395Z,17.13
2017-12-03T15:33:36.042Z,17.90
2017-12-03T15:36:03.572Z,13.77
2017-12-03T15:38:31.033Z,16.10
2017-12-03T15:40:58.980Z,15.23
2017-12-03T15:43:26.437Z,10.50
2017-12-03T15:45:53.889Z,13.37
2017-12-03T15:48:21.661Z,12.17
2017-12-03T15:50:49.115Z,15.33
2017-12-03T15:53:16.567Z,12.97
2017-12-03T15:55:44.350Z,20.57
2017-12-03T15:58:11.796Z,8.60
2017-12-03T16:00:39.980Z,11.37
2017-12-03T16:03:07.745Z,9.47
2017-12-03T16:05:35.182Z,9.27
2017-12-03T16:08:02.634Z,11.07
2017-12-03T16:10:30.333Z,13.90
2017-12-03T16:12:57.788Z,10.53
2017-12-03T16:15:25.250Z,9.33
2017-12-03T16:17:53.040Z,14.90
2017-12-03T16:20:20.491Z,10.60
2017-12-03T16:22:47.943Z,10.77
2017-12-03T16:25:15.714Z,18.40
2017-12-03T16:27:43.177Z,14.30
2017-12-03T16:30:10.638Z,14.03
2017-12-03T16:32:38.388Z,15.07
2017-12-03T16:35:05.832Z,14.00
2017-12-03T16:37:33.280Z,10.70
2017-12-03T16:40:01.090Z,13.93
2017-12-03T16:42:28.721Z,8.17
2017-12-03T16:44:56.670Z,12.17
2017-12-03T16:47:24.694Z,15.97
2017-12-03T16:49:52.141Z,12.97
2017-12-03T16:52:19.598Z,24.10
2017-12-03T16:54:47.387Z,10.30
2017-12-03T16:57:14.893Z,15.63
2017-12-03T16:59:43.096Z,10.73
2017-12-03T17:02:12.432Z,10.97
2017-12-03T17:04:40.003Z,17.37
2017-12-03T17:07:07.754Z,17.27
2017-12-03T17:09:35.528Z,17.07
2017-12-03T17:12:02.971Z,11.30
2017-12-03T17:14:31.404Z,18.70
2017-12-03T17:16:59.732Z,17.87
2017-12-03T17:19:27.177Z,10.53
2017-12-03T17:21:54.648Z,13.57
2017-12-03T17:24:22.448Z,22.20
2017-12-03T17:26:50.543Z,16.20
2017-12-03T17:29:17.984Z,19.80
2017-12-03T17:31:45.745Z,21.93
2017-12-03T17:34:13.221Z,13.33
2017-12-03T17:36:41.325Z,14.13
2017-12-03T17:39:09.068Z,15.00
2017-12-03T17:41:36.582Z,12.33
2017-12-03T17:44:04.037Z,14.93
2017-12-03T17:46:31.704Z,17.03
2017-12-03T17:48:59.654Z,15.77
2017-12-03T17:51:27.206Z,18.80
2017-12-03T17:53:55.094Z,19.00
2017-12-03T17:56:22.548Z,28.13
2017-12-03T17:58:50.001Z,25.00
2017-12-03T18:01:18.017Z,20.37
2017-12-03T18:03:45.852Z,17.50
2017-12-03T18:06:13.296Z,17.43
2017-12-03T18:08:41.017Z,24.20
2017-12-03T18:11:08.519Z,16.20
2017-12-03T18:13:35.938Z,27.63
2017-12-03T18:16:04.001Z,22.30
2017-12-03T18:18:31.818Z,30.17
2017-12-03T18:20:59.539Z,17.00
2017-12-03T18:23:27.305Z,19.60
2017-12-03T18:25:55.378Z,20.47
2017-12-03T18:28:22.989Z,20.63
2017-12-03T18:30:50.905Z,20.73
2017-12-03T18:33:18.372Z,18.40
2017-12-03T18:35:45.824Z,18.90
2017-12-03T18:38:14.346Z,28.80
2017-12-03T18:40:41.808Z,17.70
2017-12-03T18:43:09.256Z,31.37
2017-12-03T18:45:36.881Z,22.10
2017-12-03T18:48:04.337Z,20.07
2017-12-03T18:50:32.432Z,17.20
2017-12-03T18:53:00.202Z,21.67
2017-12-03T18:55:27.674Z,22.30
2017-12-03T18:57:55.125Z,17.50
2017-12-03T19:00:22.894Z,15.10
2017-12-03T19:02:51.298Z,21.53
2017-12-03T19:05:19.518Z,27.00
2017-12-03T19:07:47.793Z,23.10
2017-12-03T19:10:15.253Z,26.40
2017-12-03T19:12:43.828Z,18.40
2017-12-03T19:15:11.652Z,24.00
2017-12-03T19:17:41.110Z,25.07
2017-12-03T19:20:09.373Z,25.20
2017-12-03T19:22:37.088Z,18.57
2017-12-03T19:25:04.540Z,20.80
2017-12-03T19:27:32.062Z,20.47
2017-12-03T19:30:00.092Z,35.50
2017-12-03T19:32:27.558Z,34.03
2017-12-03T19:34:55.036Z,21.50
2017-12-03T19:37:23.264Z,27.07
2017-12-03T19:39:51.006Z,36.27
2017-12-03T19:42:18.616Z,31.23
2017-12-03T19:44:46.690Z,26.10
2017-12-03T19:47:14.157Z,27.53
2017-12-03T19:49:41.995Z,20.00
2017-12-03T19:52:10.567Z,32.33
2017-12-03T19:54:38.031Z,27.90
2017-12-03T19:57:05.506Z,26.33
2017-12-03T19:59:33.238Z,30.20
2017-12-03T20:02:01.119Z,32.90
2017-12-03T20:04:28.609Z,33.13
2017-12-03T20:06:56.909Z,30.07
2017-12-03T20:09:24.381Z,28.43
2017-12-03T20:11:52.095Z,35.77
2017-12-03T20:14:20.329Z,23.77
2017-12-03T20:16:47.934Z,27.17
2017-12-03T20:19:15.473Z,29.33
2017-12-03T20:21:43.492Z,35.20
2017-12-03T20:24:10.995Z,32.60
2017-12-03T20:26:38.491Z,27.43
2017-12-03T20:29:06.509Z,28.07
2017-12-03T20:31:33.999Z,41.53
2017-12-03T20:34:01.475Z,33.07
2017-12-03T20:36:29.181Z,26.13
2017-12-03T20:38:56.653Z,22.73
2017-12-03T20:41:24.120Z,20.93
2017-12-03T20:43:51.896Z,19.27
2017-12-03T20:46:19.381Z,23.90
2017-12-03T20:48:46.856Z,31.07
2017-12-03T20:51:14.874Z,38.80
2017-12-03T20:53:42.351Z,25.77
2017-12-03T20:56:09.852Z,23.00
2017-12-03T20:58:37.551Z,28.60
2017-12-03T21:01:05.010Z,24.20
2017-12-03T21:03:32.457Z,11.50
2017-12-03T21:06:00.248Z,22.30
2017-12-03T21:08:27.701Z,16.10
2017-12-03T21:10:55.161Z,17.07
2017-12-03T21:13:22.933Z,23.93
2017-12-03T21:15:50.390Z,29.20
2017-12-03T21:18:17.852Z,40.90
2017-12-03T21:20:45.619Z,30.47
2017-12-03T21:23:13.073Z,17.77
2017-12-03T21:25:40.530Z,15.03
2017-12-03T21:28:08.307Z,19.70
2017-12-03T21:30:35.770Z,17.17
2017-12-03T21:33:03.233Z,16.67
2017-12-03T21:35:30.983Z,16.47
2017-12-03T21:37:58.441Z,15.50
2017-12-03T21:40:25.888Z,13.70
2017-12-03T21:42:53.673Z,12.50
2017-12-03T21:45:21.113Z,11.20
2017-12-03T21:47:48.564Z,17.70
2017-12-03T21:50:16.283Z,14.03
2017-12-03T21:52:43.728Z,10.53
2017-12-03T21:55:11.198Z,12.73
2017-12-03T21:57:39.048Z,20.57
2017-12-03T22:00:06.509Z,19.93
2017-12-03T22:02:33.966Z,13.63
2017-12-03T22:05:01.742Z,15.33
2017-12-03T22:07:29.202Z,17.33
2017-12-03T22:09:56.733Z,20.00
2017-12-03T22:12:24.417Z,14.27
2017-12-03T22:14:51.874Z,12.93
2017-12-03T22:17:19.330Z,15.80
2017-12-03T22:19:47.101Z,15.67
2017-12-03T22:22:14.552Z,24.07
2017-12-03T22:24:41.996Z,9.10
2017-12-03T22:27:09.725Z,18.17
2017-12-03T22:29:37.182Z,21.23
2017-12-03T22:32:04.637Z,16.87
2017-12-03T22:34:32.481Z,10.07
2017-12-03T22:36:59.940Z,20.00
2017-12-03T22:39:27.389Z,28.60
2017-12-03T22:41:55.171Z,24.80
2017-12-03T22:44:22.622Z,17.23
2017-12-03T22:46:50.065Z,10.17
2017-12-03T22:49:17.863Z,15.50
2017-12-03T22:51:45.320Z,17.83
2017-12-03T22:54:12.786Z,12.83
2017-12-03T22:56:40.541Z,15.67
2017-12-03T22:59:07.989Z,10.87
2017-12-03T23:01:35.433Z,20.27
2017-12-03T23:04:03.227Z,12.50
2017-12-03T23:06:30.676Z,25.20
2017-12-03T23:08:58.122Z,10.97
2017-12-03T23:11:26.835Z,13.07
2017-12-03T23:13:54.277Z,22.00
2017-12-03T23:16:21.736Z,18.43
2017-12-03T23:18:49.571Z,21.40
2017-12-03T23:21:17.025Z,21.43
2017-12-03T23:23:44.472Z,20.73
2017-12-03T23:26:12.537Z,14.17
2017-12-03T23:28:39.989Z,22.10
2017-12-03T23:31:07.437Z,21.23
2017-12-03T23:33:35.161Z,22.63
2017-12-03T23:36:02.617Z,12.30
2017-12-03T23:38:30.078Z,19.93
2017-12-03T23:40:57.813Z,21.97
2017-12-03T23:43:25.271Z,22.73
2017-12-03T23:45:52.738Z,15.87
2017-12-03T23:48:20.507Z,11.87
2017-12-03T23:50:47.965Z,23.43
2017-12-03T23:53:15.412Z,6.50
2017-12-03T23:55:43.262Z,31.07
2017-12-03T23:58:10.708Z,25.50
